createdAt,value
2018-07-04T00:00:43.502Z,983.82
2018-07-04T00:01:43.486Z,983.83
2018-07-04T00:02:43.449Z,983.80
2018-07-04T00:03:43.404Z,983.78
2018-07-04T00:04:43.382Z,983.79
2018-07-04T00:05:43.313Z,983.78
2018-07-04T00:06:43.285Z,983.77
2018-07-04T00:07:43.264Z,983.80
2018-07-04T00:08:43.196Z,983.74
2018-07-04T00:09:43.165Z,983.75
2018-07-04T00:10:43.143Z,983.73
2018-07-04T00:11:43.118Z,983.74
2018-07-04T00:12:43.060Z,983.73
2018-07-04T00:13:50.008Z,983.72
2018-07-04T00:14:42.977Z,983.74
2018-07-04T00:15:42.927Z,983.76
2018-07-04T00:16:42.903Z,983.75
2018-07-04T00:17:42.859Z,983.77
2018-07-04T00:18:42.805Z,983.73
2018-07-04T00:19:42.782Z,983.77
2018-07-04T00:20:42.738Z,983.77
2018-07-04T00:21:42.706Z,983.77
2018-07-04T00:22:42.660Z,983.73
2018-07-04T00:23:42.645Z,983.73
2018-07-04T00:24:42.585Z,983.70
2018-07-04T00:25:42.602Z,983.68
2018-07-04T00:26:42.532Z,983.68
2018-07-04T00:27:42.456Z,983.70
2018-07-04T00:28:42.454Z,983.70
2018-07-04T00:29:42.373Z,983.69
2018-07-04T00:30:42.357Z,983.68
2018-07-04T00:31:42.333Z,983.70
2018-07-04T00:32:42.277Z,983.72
2018-07-04T00:33:42.231Z,983.70
2018-07-04T00:34:42.211Z,983.70
2018-07-04T00:35:42.152Z,983.72
2018-07-04T00:36:42.110Z,983.72
2018-07-04T00:37:42.066Z,983.76
2018-07-04T00:38:42.057Z,983.71
2018-07-04T00:39:41.985Z,983.72
2018-07-04T00:40:41.981Z,983.74
2018-07-04T00:41:41.907Z,983.73
2018-07-04T00:42:41.911Z,983.73
2018-07-04T00:43:41.841Z,983.80
2018-07-04T00:44:41.811Z,983.80
2018-07-04T00:45:41.758Z,983.79
2018-07-04T00:46:41.740Z,983.79
2018-07-04T00:47:41.708Z,983.80
2018-07-04T00:48:41.657Z,983.79
2018-07-04T00:49:41.643Z,983.81
2018-07-04T00:50:41.547Z,983.86
2018-07-04T00:51:41.537Z,983.89
2018-07-04T00:52:41.500Z,983.86
2018-07-04T00:53:41.463Z,983.85
2018-07-04T00:54:41.441Z,983.87
2018-07-04T00:55:41.373Z,983.87
2018-07-04T00:56:41.375Z,983.88
2018-07-04T00:57:41.282Z,983.89
2018-07-04T00:58:41.268Z,983.90
2018-07-04T00:59:41.202Z,983.87
2018-07-04T01:00:41.167Z,983.86
2018-07-04T01:01:41.135Z,983.91
2018-07-04T01:02:41.108Z,983.91
2018-07-04T01:03:41.087Z,983.92
2018-07-04T01:04:41.018Z,983.92
2018-07-04T01:05:40.977Z,983.91
2018-07-04T01:06:40.983Z,983.92
2018-07-04T01:07:41.418Z,983.93
2018-07-04T01:08:40.875Z,983.96
2018-07-04T01:09:40.821Z,983.95
2018-07-04T01:10:40.797Z,983.93
2018-07-04T01:11:40.745Z,983.91
2018-07-04T01:12:40.704Z,983.88
2018-07-04T01:13:40.691Z,983.92
2018-07-04T01:14:40.637Z,983.85
2018-07-04T01:15:40.607Z,983.91
2018-07-04T01:16:40.540Z,983.87
2018-07-04T01:17:40.519Z,983.88
2018-07-04T01:18:40.468Z,983.86
2018-07-04T01:19:40.430Z,983.89
2018-07-04T01:20:40.398Z,983.88
2018-07-04T01:21:40.366Z,983.89
2018-07-04T01:22:40.920Z,983.90
2018-07-04T01:23:40.271Z,983.87
2018-07-04T01:24:40.229Z,983.86
2018-07-04T01:25:40.190Z,983.85
2018-07-04T01:26:40.178Z,983.81
2018-07-04T01:27:40.145Z,983.82
2018-07-04T01:28:40.084Z,983.81
2018-07-04T01:29:40.029Z,983.82
2018-07-04T01:30:39.992Z,983.80
2018-07-04T01:31:39.954Z,983.77
2018-07-04T01:32:39.944Z,983.78
2018-07-04T01:33:39.873Z,983.81
2018-07-04T01:34:39.866Z,983.80
2018-07-04T01:35:39.819Z,983.78
2018-07-04T01:36:39.755Z,983.80
2018-07-04T01:37:39.719Z,983.76
2018-07-04T01:38:39.669Z,983.74
2018-07-04T01:39:39.619Z,983.75
2018-07-04T01:40:39.609Z,983.74
2018-07-04T01:41:39.575Z,983.74
2018-07-04T01:42:39.540Z,983.76
2018-07-04T01:43:39.471Z,983.77
2018-07-04T01:44:39.441Z,983.74
2018-07-04T01:45:39.398Z,983.75
2018-07-04T01:46:39.354Z,983.75
2018-07-04T01:47:39.326Z,983.76
2018-07-04T01:48:39.285Z,983.73
2018-07-04T01:49:39.273Z,983.72
2018-07-04T01:50:39.202Z,983.71
2018-07-04T01:51:39.155Z,983.72
2018-07-04T01:52:39.121Z,983.71
2018-07-04T01:53:39.105Z,983.71
2018-07-04T01:54:39.929Z,983.71
2018-07-04T01:55:38.987Z,983.72
2018-07-04T01:56:39.068Z,983.77
2018-07-04T01:57:38.923Z,983.80
2018-07-04T01:58:38.900Z,983.78
2018-07-04T01:59:38.840Z,983.80
2018-07-04T02:00:38.818Z,983.78
2018-07-04T02:01:38.756Z,983.82
2018-07-04T02:02:38.725Z,983.78
2018-07-04T02:03:38.705Z,983.77
2018-07-04T02:04:38.654Z,983.76
2018-07-04T02:05:38.615Z,983.76
2018-07-04T02:06:38.572Z,983.75
2018-07-04T02:07:38.555Z,983.72
2018-07-04T02:08:38.519Z,983.72
2018-07-04T02:09:38.932Z,983.70
2018-07-04T02:10:38.398Z,983.73
2018-07-04T02:11:38.389Z,983.66
2018-07-04T02:12:38.305Z,983.70
2018-07-04T02:13:38.295Z,983.69
2018-07-04T02:14:38.270Z,983.67
2018-07-04T02:15:38.256Z,983.63
2018-07-04T02:16:38.153Z,983.67
2018-07-04T02:17:38.146Z,983.65
2018-07-04T02:18:38.076Z,983.62
2018-07-04T02:19:38.045Z,983.61
2018-07-04T02:20:38.028Z,983.61
2018-07-04T02:21:37.954Z,983.57
2018-07-04T02:22:37.945Z,983.56
2018-07-04T02:23:37.884Z,983.52
2018-07-04T02:24:37.867Z,983.49
2018-07-04T02:25:37.820Z,983.50
2018-07-04T02:26:37.766Z,983.50
2018-07-04T02:27:37.741Z,983.50
2018-07-04T02:28:37.709Z,983.55
2018-07-04T02:29:37.641Z,983.58
2018-07-04T02:30:37.621Z,983.55
2018-07-04T02:31:37.567Z,983.56
2018-07-04T02:32:37.519Z,983.59
2018-07-04T02:33:37.493Z,983.61
2018-07-04T02:34:37.466Z,983.58
2018-07-04T02:35:37.428Z,983.57
2018-07-04T02:36:37.366Z,983.56
2018-07-04T02:37:37.352Z,983.54
2018-07-04T02:38:37.289Z,983.56
2018-07-04T02:39:37.236Z,983.54
2018-07-04T02:40:37.214Z,983.52
2018-07-04T02:41:37.196Z,983.56
2018-07-04T02:42:37.133Z,983.55
2018-07-04T02:43:37.086Z,983.51
2018-07-04T02:44:37.108Z,983.51
2018-07-04T02:45:36.999Z,983.51
2018-07-04T02:46:37.000Z,983.49
2018-07-04T02:47:36.931Z,983.45
2018-07-04T02:48:36.887Z,983.45
2018-07-04T02:49:36.877Z,983.49
2018-07-04T02:50:36.831Z,983.47
2018-07-04T02:51:36.827Z,983.48
2018-07-04T02:52:36.741Z,983.45
2018-07-04T02:53:36.704Z,983.47
2018-07-04T02:54:36.644Z,983.45
2018-07-04T02:55:36.623Z,983.43
2018-07-04T02:56:36.573Z,983.41
2018-07-04T02:57:36.518Z,983.42
2018-07-04T02:58:36.483Z,983.39
2018-07-04T02:59:36.449Z,983.40
2018-07-04T03:00:36.416Z,983.44
2018-07-04T03:01:36.369Z,983.44
2018-07-04T03:02:36.326Z,983.41
2018-07-04T03:03:36.286Z,983.45
2018-07-04T03:04:36.291Z,983.42
2018-07-04T03:05:36.208Z,983.39
2018-07-04T03:06:36.186Z,983.35
2018-07-04T03:07:36.141Z,983.34
2018-07-04T03:08:36.077Z,983.35
2018-07-04T03:09:36.054Z,983.32
2018-07-04T03:10:35.998Z,983.38
2018-07-04T03:11:35.966Z,983.36
2018-07-04T03:12:35.923Z,983.39
2018-07-04T03:13:35.884Z,983.42
2018-07-04T03:14:35.841Z,983.40
2018-07-04T03:15:35.817Z,983.40
2018-07-04T03:16:35.775Z,983.38
2018-07-04T03:17:35.730Z,983.42
2018-07-04T03:18:35.698Z,983.41
2018-07-04T03:19:35.668Z,983.43
2018-07-04T03:20:35.631Z,983.37
2018-07-04T03:21:35.598Z,983.42
2018-07-04T03:22:35.541Z,983.42
2018-07-04T03:23:35.505Z,983.35
2018-07-04T03:24:35.453Z,983.39
2018-07-04T03:25:35.404Z,983.41
2018-07-04T03:26:35.392Z,983.40
2018-07-04T03:27:35.346Z,983.42
2018-07-04T03:28:35.275Z,983.42
2018-07-04T03:29:35.257Z,983.39
2018-07-04T03:30:35.222Z,983.40
2018-07-04T03:31:35.183Z,983.38
2018-07-04T03:32:35.135Z,983.38
2018-07-04T03:33:35.103Z,983.36
2018-07-04T03:34:35.052Z,983.39
2018-07-04T03:35:35.012Z,983.41
2018-07-04T03:36:35.007Z,983.40
2018-07-04T03:37:34.930Z,983.41
2018-07-04T03:38:34.900Z,983.42
2018-07-04T03:39:34.855Z,983.45
2018-07-04T03:40:34.808Z,983.41
2018-07-04T03:41:34.786Z,983.44
2018-07-04T03:42:34.736Z,983.41
2018-07-04T03:43:34.689Z,983.39
2018-07-04T03:44:34.647Z,983.36
2018-07-04T03:45:34.631Z,983.34
2018-07-04T03:46:34.570Z,983.35
2018-07-04T03:47:34.526Z,983.29
2018-07-04T03:48:34.476Z,983.27
2018-07-04T03:49:34.437Z,983.32
2018-07-04T03:50:34.397Z,983.27
2018-07-04T03:51:34.362Z,983.28
2018-07-04T03:52:34.359Z,983.34
2018-07-04T03:53:34.299Z,983.29
2018-07-04T03:54:34.252Z,983.29
2018-07-04T03:55:34.210Z,983.26
2018-07-04T03:56:34.188Z,983.28
2018-07-04T03:57:34.132Z,983.25
2018-07-04T03:58:34.083Z,983.31
2018-07-04T03:59:34.063Z,983.28
2018-07-04T04:00:34.028Z,983.30
2018-07-04T04:01:33.962Z,983.33
2018-07-04T04:02:33.950Z,983.34
2018-07-04T04:03:33.889Z,983.37
2018-07-04T04:04:33.854Z,983.34
2018-07-04T04:05:33.832Z,983.35
2018-07-04T04:06:33.774Z,983.37
2018-07-04T04:07:33.740Z,983.35
2018-07-04T04:08:33.690Z,983.34
2018-07-04T04:09:33.678Z,983.37
2018-07-04T04:10:33.642Z,983.37
2018-07-04T04:11:33.587Z,983.35
2018-07-04T04:12:33.541Z,983.36
2018-07-04T04:13:33.570Z,983.34
2018-07-04T04:14:33.496Z,983.36
2018-07-04T04:15:33.428Z,983.36
2018-07-04T04:16:33.390Z,983.40
2018-07-04T04:17:33.371Z,983.37
2018-07-04T04:18:33.336Z,983.38
2018-07-04T04:19:33.256Z,983.39
2018-07-04T04:20:33.234Z,983.43
2018-07-04T04:21:33.205Z,983.47
2018-07-04T04:22:33.195Z,983.48
2018-07-04T04:23:33.117Z,983.45
2018-07-04T04:24:33.077Z,983.44
2018-07-04T04:25:33.036Z,983.46
2018-07-04T04:26:33.094Z,983.45
2018-07-04T04:27:32.952Z,983.45
2018-07-04T04:28:32.944Z,983.43
2018-07-04T04:29:32.887Z,983.45
2018-07-04T04:30:32.843Z,983.45
2018-07-04T04:31:32.834Z,983.45
2018-07-04T04:32:32.833Z,983.47
2018-07-04T04:33:32.737Z,983.48
2018-07-04T04:34:32.724Z,983.42
2018-07-04T04:35:32.667Z,983.48
2018-07-04T04:36:32.631Z,983.48
2018-07-04T04:37:32.587Z,983.52
2018-07-04T04:38:32.569Z,983.50
2018-07-04T04:39:32.537Z,983.51
2018-07-04T04:40:32.496Z,983.52
2018-07-04T04:41:32.473Z,983.55
2018-07-04T04:42:32.437Z,983.56
2018-07-04T04:43:32.401Z,983.52
2018-07-04T04:44:32.385Z,983.54
2018-07-04T04:45:32.338Z,983.55
2018-07-04T04:46:32.277Z,983.59
2018-07-04T04:47:32.267Z,983.57
2018-07-04T04:48:32.239Z,983.56
2018-07-04T04:49:32.207Z,983.52
2018-07-04T04:50:32.148Z,983.55
2018-07-04T04:51:32.156Z,983.53
2018-07-04T04:52:32.105Z,983.53
2018-07-04T04:53:32.075Z,983.53
2018-07-04T04:54:32.043Z,983.54
2018-07-04T04:55:32.015Z,983.52
2018-07-04T04:56:31.961Z,983.55
2018-07-04T04:57:31.952Z,983.57
2018-07-04T04:58:31.917Z,983.59
2018-07-04T04:59:31.861Z,983.61
2018-07-04T05:00:31.846Z,983.59
2018-07-04T05:01:31.793Z,983.61
2018-07-04T05:02:31.760Z,983.63
2018-07-04T05:03:31.747Z,983.63
2018-07-04T05:04:32.479Z,983.63
2018-07-04T05:05:31.715Z,983.58
2018-07-04T05:06:31.660Z,983.59
2018-07-04T05:07:31.619Z,983.61
2018-07-04T05:08:31.591Z,983.57
2018-07-04T05:09:31.554Z,983.60
2018-07-04T05:10:31.522Z,983.60
2018-07-04T05:11:31.505Z,983.58
2018-07-04T05:12:31.472Z,983.62
2018-07-04T05:13:31.438Z,983.58
2018-07-04T05:14:31.404Z,983.58
2018-07-04T05:15:31.414Z,983.64
2018-07-04T05:16:31.347Z,983.63
2018-07-04T05:17:31.327Z,983.60
2018-07-04T05:18:31.299Z,983.61
2018-07-04T05:19:31.272Z,983.67
2018-07-04T05:20:31.256Z,983.68
2018-07-04T05:21:31.212Z,983.69
2018-07-04T05:22:31.173Z,983.70
2018-07-04T05:23:31.166Z,983.72
2018-07-04T05:24:31.127Z,983.75
2018-07-04T05:25:31.102Z,983.71
2018-07-04T05:26:31.082Z,983.73
2018-07-04T05:27:31.038Z,983.71
2018-07-04T05:28:31.010Z,983.72
2018-07-04T05:29:30.990Z,983.68
2018-07-04T05:30:30.955Z,983.66
2018-07-04T05:31:30.949Z,983.67
2018-07-04T05:32:30.896Z,983.68
2018-07-04T05:33:30.865Z,983.63
2018-07-04T05:34:30.853Z,983.69
2018-07-04T05:35:30.815Z,983.66
2018-07-04T05:36:30.802Z,983.68
2018-07-04T05:37:30.783Z,983.65
2018-07-04T05:38:30.734Z,983.65
2018-07-04T05:39:30.703Z,983.60
2018-07-04T05:40:30.682Z,983.61
2018-07-04T05:41:30.674Z,983.60
2018-07-04T05:42:30.644Z,983.57
2018-07-04T05:43:30.622Z,983.59
2018-07-04T05:44:30.614Z,983.58
2018-07-04T05:45:30.555Z,983.56
2018-07-04T05:46:30.541Z,983.59
2018-07-04T05:47:30.549Z,983.57
2018-07-04T05:48:30.485Z,983.56
2018-07-04T05:49:30.461Z,983.57
2018-07-04T05:50:30.435Z,983.54
2018-07-04T05:51:30.419Z,983.53
2018-07-04T05:52:30.378Z,983.55
2018-07-04T05:53:30.374Z,983.54
2018-07-04T05:54:30.341Z,983.51
2018-07-04T05:55:30.326Z,983.54
2018-07-04T05:56:30.272Z,983.49
2018-07-04T05:57:30.998Z,983.51
2018-07-04T05:58:30.222Z,983.48
2018-07-04T05:59:30.232Z,983.53
2018-07-04T06:00:30.189Z,983.54
2018-07-04T06:01:30.153Z,983.49
2018-07-04T06:02:30.125Z,983.50
2018-07-04T06:03:30.096Z,983.51
2018-07-04T06:04:30.067Z,983.48
2018-07-04T06:05:30.032Z,983.48
2018-07-04T06:06:30.009Z,983.43
2018-07-04T06:07:29.967Z,983.38
2018-07-04T06:08:29.956Z,983.39
2018-07-04T06:09:29.904Z,983.39
2018-07-04T06:10:29.894Z,983.37
2018-07-04T06:11:29.865Z,983.36
2018-07-04T06:12:29.860Z,983.39
2018-07-04T06:13:29.807Z,983.36
2018-07-04T06:14:29.769Z,983.33
2018-07-04T06:15:29.742Z,983.37
2018-07-04T06:16:29.732Z,983.35
2018-07-04T06:17:29.691Z,983.34
2018-07-04T06:18:29.647Z,983.33
2018-07-04T06:19:29.639Z,983.32
2018-07-04T06:20:29.617Z,983.35
2018-07-04T06:21:29.593Z,983.35
2018-07-04T06:22:29.545Z,983.32
2018-07-04T06:23:29.519Z,983.34
2018-07-04T06:24:29.480Z,983.37
2018-07-04T06:25:29.454Z,983.35
2018-07-04T06:26:29.410Z,983.37
2018-07-04T06:27:29.401Z,983.39
2018-07-04T06:28:29.365Z,983.35
2018-07-04T06:29:29.338Z,983.30
2018-07-04T06:30:29.309Z,983.33
2018-07-04T06:31:29.291Z,983.33
2018-07-04T06:32:29.376Z,983.34
2018-07-04T06:33:29.229Z,983.30
2018-07-04T06:34:29.184Z,983.30
2018-07-04T06:35:29.156Z,983.29
2018-07-04T06:36:29.245Z,983.33
2018-07-04T06:37:29.105Z,983.31
2018-07-04T06:38:29.073Z,983.30
2018-07-04T06:39:29.065Z,983.30
2018-07-04T06:40:29.018Z,983.30
2018-07-04T06:41:28.973Z,983.23
2018-07-04T06:42:28.970Z,983.26
2018-07-04T06:43:28.927Z,983.24
2018-07-04T06:44:28.892Z,983.21
2018-07-04T06:45:28.865Z,983.21
2018-07-04T06:46:28.896Z,983.20
2018-07-04T06:47:28.818Z,983.22
2018-07-04T06:48:28.772Z,983.20
2018-07-04T06:49:28.759Z,983.21
2018-07-04T06:50:28.724Z,983.20
2018-07-04T06:51:28.701Z,983.24
2018-07-04T06:52:28.676Z,983.25
2018-07-04T06:53:28.636Z,983.31
2018-07-04T06:54:28.627Z,983.28
2018-07-04T06:55:28.567Z,983.24
2018-07-04T06:56:28.543Z,983.26
2018-07-04T06:57:28.506Z,983.30
2018-07-04T06:58:28.487Z,983.24
2018-07-04T06:59:28.448Z,983.24
2018-07-04T07:00:28.419Z,983.22
2018-07-04T07:01:28.399Z,983.23
2018-07-04T07:02:28.376Z,983.21
2018-07-04T07:03:28.344Z,983.20
2018-07-04T07:04:28.309Z,983.21
2018-07-04T07:05:28.274Z,983.19
2018-07-04T07:06:28.254Z,983.22
2018-07-04T07:07:28.237Z,983.16
2018-07-04T07:08:28.225Z,983.16
2018-07-04T07:09:28.177Z,983.17
2018-07-04T07:10:28.134Z,983.19
2018-07-04T07:11:28.120Z,983.24
2018-07-04T07:12:28.109Z,983.17
2018-07-04T07:13:28.056Z,983.25
2018-07-04T07:14:28.079Z,983.25
2018-07-04T07:15:28.024Z,983.20
2018-07-04T07:16:28.080Z,983.24
2018-07-04T07:17:27.962Z,983.18
2018-07-04T07:18:27.992Z,983.21
2018-07-04T07:19:27.946Z,983.21
2018-07-04T07:20:27.897Z,983.26
2018-07-04T07:21:27.870Z,983.25
2018-07-04T07:22:27.846Z,983.22
2018-07-04T07:23:27.831Z,983.25
2018-07-04T07:24:27.797Z,983.27
2018-07-04T07:25:27.773Z,983.24
2018-07-04T07:26:27.774Z,983.24
2018-07-04T07:27:27.799Z,983.29
2018-07-04T07:28:27.720Z,983.28
2018-07-04T07:29:27.693Z,983.31
2018-07-04T07:30:27.681Z,983.30
2018-07-04T07:31:27.649Z,983.25
2018-07-04T07:32:27.628Z,983.29
2018-07-04T07:33:27.662Z,983.29
2018-07-04T07:34:27.592Z,983.26
2018-07-04T07:35:27.581Z,983.26
2018-07-04T07:36:27.552Z,983.23
2018-07-04T07:37:27.527Z,983.22
2018-07-04T07:38:27.507Z,983.27
2018-07-04T07:39:27.490Z,983.24
2018-07-04T07:40:27.472Z,983.27
2018-07-04T07:41:27.423Z,983.25
2018-07-04T07:42:27.419Z,983.24
2018-07-04T07:43:27.385Z,983.22
2018-07-04T07:44:27.366Z,983.19
2018-07-04T07:45:27.363Z,983.22
2018-07-04T07:46:27.347Z,983.20
2018-07-04T07:47:27.312Z,983.22
2018-07-04T07:48:27.302Z,983.18
2018-07-04T07:49:27.257Z,983.15
2018-07-04T07:50:27.245Z,983.17
2018-07-04T07:51:27.216Z,983.21
2018-07-04T07:52:27.209Z,983.18
2018-07-04T07:53:27.192Z,983.19
2018-07-04T07:54:27.238Z,983.12
2018-07-04T07:55:27.134Z,983.14
2018-07-04T07:56:27.118Z,983.10
2018-07-04T07:57:27.115Z,983.10
2018-07-04T07:58:27.098Z,983.12
2018-07-04T07:59:27.069Z,983.14
2018-07-04T08:00:27.036Z,983.13
2018-07-04T08:01:27.029Z,983.12
2018-07-04T08:02:27.007Z,983.07
2018-07-04T08:03:26.990Z,983.13
2018-07-04T08:04:26.965Z,983.11
2018-07-04T08:05:26.945Z,983.13
2018-07-04T08:06:26.922Z,983.15
2018-07-04T08:07:26.936Z,983.14
2018-07-04T08:08:26.883Z,983.15
2018-07-04T08:09:26.863Z,983.17
2018-07-04T08:10:26.848Z,983.18
2018-07-04T08:11:26.843Z,983.17
2018-07-04T08:12:26.814Z,983.18
2018-07-04T08:13:26.809Z,983.16
2018-07-04T08:14:26.781Z,983.12
2018-07-04T08:15:26.782Z,983.11
2018-07-04T08:16:26.745Z,983.11
2018-07-04T08:17:26.746Z,983.11
2018-07-04T08:18:26.705Z,983.14
2018-07-04T08:19:26.717Z,983.13
2018-07-04T08:20:26.662Z,983.18
2018-07-04T08:21:26.669Z,983.06
2018-07-04T08:22:26.630Z,983.08
2018-07-04T08:23:26.626Z,983.04
2018-07-04T08:24:26.639Z,983.06
2018-07-04T08:25:26.599Z,983.07
2018-07-04T08:26:26.584Z,983.05
2018-07-04T08:27:26.576Z,983.04
2018-07-04T08:28:26.545Z,983.06
2018-07-04T08:29:26.518Z,983.05
2018-07-04T08:30:26.491Z,983.00
2018-07-04T08:31:26.480Z,983.04
2018-07-04T08:32:26.463Z,983.04
2018-07-04T08:33:26.438Z,983.03
2018-07-04T08:34:26.444Z,983.04
2018-07-04T08:35:26.424Z,983.03
2018-07-04T08:36:26.400Z,983.03
2018-07-04T08:37:26.375Z,983.05
2018-07-04T08:38:26.363Z,983.05
2018-07-04T08:39:26.346Z,983.05
2018-07-04T08:40:26.334Z,983.02
2018-07-04T08:41:26.296Z,983.04
2018-07-04T08:42:26.286Z,983.07
2018-07-04T08:43:26.277Z,983.04
2018-07-04T08:44:26.259Z,983.01
2018-07-04T08:45:26.246Z,983.05
2018-07-04T08:46:26.228Z,983.04
2018-07-04T08:47:26.202Z,983.06
2018-07-04T08:48:26.185Z,983.06
2018-07-04T08:49:26.178Z,983.04
2018-07-04T08:50:26.153Z,983.07
2018-07-04T08:51:26.137Z,983.08
2018-07-04T08:52:26.145Z,983.06
2018-07-04T08:53:26.099Z,983.06
2018-07-04T08:54:26.084Z,983.10
2018-07-04T08:55:26.074Z,983.04
2018-07-04T08:56:26.070Z,983.05
2018-07-04T08:57:26.036Z,983.05
2018-07-04T08:58:26.106Z,983.05
2018-07-04T08:59:25.996Z,983.10
2018-07-04T09:00:25.971Z,983.06
2018-07-04T09:01:25.958Z,983.07
2018-07-04T09:02:25.938Z,983.08
2018-07-04T09:03:25.921Z,983.09
2018-07-04T09:04:25.890Z,983.05
2018-07-04T09:05:25.881Z,983.04
2018-07-04T09:06:25.941Z,983.06
2018-07-04T09:07:25.847Z,983.03
2018-07-04T09:08:25.829Z,983.02
2018-07-04T09:09:25.803Z,983.00
2018-07-04T09:10:25.793Z,983.02
2018-07-04T09:11:25.797Z,983.01
2018-07-04T09:12:25.748Z,983.02
2018-07-04T09:13:25.736Z,982.99
2018-07-04T09:14:25.735Z,982.99
2018-07-04T09:15:25.693Z,982.98
2018-07-04T09:16:25.694Z,983.01
2018-07-04T09:17:25.672Z,982.99
2018-07-04T09:18:25.655Z,983.01
2018-07-04T09:19:25.642Z,983.01
2018-07-04T09:20:25.617Z,982.99
2018-07-04T09:21:25.598Z,982.98
2018-07-04T09:22:25.571Z,982.97
2018-07-04T09:23:25.579Z,982.95
2018-07-04T09:24:25.566Z,982.96
2018-07-04T09:25:25.536Z,982.99
2018-07-04T09:26:25.515Z,982.96
2018-07-04T09:27:25.500Z,982.99
2018-07-04T09:28:25.485Z,982.99
2018-07-04T09:29:25.458Z,982.98
2018-07-04T09:30:25.473Z,982.97
2018-07-04T09:31:25.472Z,982.94
2018-07-04T09:32:25.407Z,982.96
2018-07-04T09:33:25.392Z,982.93
2018-07-04T09:34:25.380Z,982.90
2018-07-04T09:35:25.392Z,982.95
2018-07-04T09:36:25.335Z,982.94
2018-07-04T09:37:25.325Z,982.92
2018-07-04T09:38:25.310Z,982.90
2018-07-04T09:39:25.288Z,982.90
2018-07-04T09:40:25.261Z,982.87
2018-07-04T09:41:25.260Z,982.90
2018-07-04T09:42:25.267Z,982.88
2018-07-04T09:43:25.217Z,982.86
2018-07-04T09:44:25.202Z,982.92
2018-07-04T09:45:25.186Z,982.90
2018-07-04T09:46:25.309Z,982.93
2018-07-04T09:47:25.139Z,982.89
2018-07-04T09:48:25.145Z,982.91
2018-07-04T09:49:25.119Z,982.94
2018-07-04T09:50:25.137Z,982.90
2018-07-04T09:51:25.080Z,982.92
2018-07-04T09:52:25.078Z,982.94
2018-07-04T09:53:25.049Z,982.91
2018-07-04T09:54:25.027Z,982.92
2018-07-04T09:55:25.012Z,982.93
2018-07-04T09:56:25.034Z,982.89
2018-07-04T09:57:24.977Z,982.88
2018-07-04T09:58:24.970Z,982.86
2018-07-04T09:59:24.938Z,982.86
2018-07-04T10:00:24.932Z,982.86
2018-07-04T10:01:24.906Z,982.85
2018-07-04T10:02:24.901Z,982.85
2018-07-04T10:03:24.878Z,982.90
2018-07-04T10:04:24.862Z,982.92
2018-07-04T10:05:24.853Z,982.85
2018-07-04T10:06:24.829Z,982.86
2018-07-04T10:07:24.804Z,982.79
2018-07-04T10:08:24.830Z,982.80
2018-07-04T10:09:24.788Z,982.83
2018-07-04T10:10:24.760Z,982.82
2018-07-04T10:11:24.753Z,982.85
2018-07-04T10:12:24.735Z,982.81
2018-07-04T10:13:24.705Z,982.82
2018-07-04T10:14:24.701Z,982.78
2018-07-04T10:15:24.675Z,982.75
2018-07-04T10:16:24.661Z,982.81
2018-07-04T10:17:24.640Z,982.80
2018-07-04T10:18:24.690Z,982.78
2018-07-04T10:19:24.612Z,982.72
2018-07-04T10:20:24.585Z,982.72
2018-07-04T10:21:24.581Z,982.74
2018-07-04T10:22:24.572Z,982.70
2018-07-04T10:23:24.547Z,982.73
2018-07-04T10:24:24.526Z,982.73
2018-07-04T10:25:24.512Z,982.74
2018-07-04T10:26:24.495Z,982.70
2018-07-04T10:27:24.468Z,982.74
2018-07-04T10:28:24.474Z,982.68
2018-07-04T10:29:24.455Z,982.68
2018-07-04T10:30:24.430Z,982.64
2018-07-04T10:31:24.451Z,982.65
2018-07-04T10:32:24.397Z,982.61
2018-07-04T10:33:24.369Z,982.59
2018-07-04T10:34:24.376Z,982.62
2018-07-04T10:35:24.413Z,982.63
2018-07-04T10:36:24.337Z,982.60
2018-07-04T10:37:24.320Z,982.67
2018-07-04T10:38:24.298Z,982.65
2018-07-04T10:39:24.287Z,982.68
2018-07-04T10:40:24.295Z,982.65
2018-07-04T10:41:24.260Z,982.62
2018-07-04T10:42:24.230Z,982.62
2018-07-04T10:43:24.244Z,982.56
2018-07-04T10:44:24.206Z,982.58
2018-07-04T10:45:24.185Z,982.54
2018-07-04T10:46:24.165Z,982.58
2018-07-04T10:47:24.159Z,982.51
2018-07-04T10:48:24.145Z,982.52
2018-07-04T10:49:24.107Z,982.58
2018-07-04T10:50:24.128Z,982.56
2018-07-04T10:51:24.095Z,982.57
2018-07-04T10:52:24.065Z,982.59
2018-07-04T10:53:24.033Z,982.58
2018-07-04T10:54:24.016Z,982.55
2018-07-04T10:55:24.019Z,982.55
2018-07-04T10:56:24.003Z,982.51
2018-07-04T10:57:23.974Z,982.52
2018-07-04T10:58:23.987Z,982.52
2018-07-04T10:59:23.934Z,982.48
2018-07-04T11:00:23.919Z,982.44
2018-07-04T11:01:23.911Z,982.41
2018-07-04T11:02:23.908Z,982.42
2018-07-04T11:03:23.902Z,982.39
2018-07-04T11:04:23.842Z,982.42
2018-07-04T11:05:23.832Z,982.36
2018-07-04T11:06:23.901Z,982.40
2018-07-04T11:07:23.805Z,982.36
2018-07-04T11:08:23.791Z,982.33
2018-07-04T11:09:23.766Z,982.37
2018-07-04T11:10:23.748Z,982.37
2018-07-04T11:11:23.749Z,982.38
2018-07-04T11:12:23.715Z,982.37
2018-07-04T11:13:23.691Z,982.39
2018-07-04T11:14:23.686Z,982.43
2018-07-04T11:15:23.687Z,982.35
2018-07-04T11:16:23.661Z,982.41
2018-07-04T11:17:23.629Z,982.41
2018-07-04T11:18:23.611Z,982.40
2018-07-04T11:19:23.597Z,982.35
2018-07-04T11:20:23.578Z,982.36
2018-07-04T11:21:23.561Z,982.30
2018-07-04T11:22:23.590Z,982.28
2018-07-04T11:23:23.547Z,982.27
2018-07-04T11:24:23.515Z,982.23
2018-07-04T11:25:23.495Z,982.21
2018-07-04T11:26:23.482Z,982.19
2018-07-04T11:27:23.462Z,982.19
2018-07-04T11:28:23.457Z,982.13
2018-07-04T11:29:23.444Z,982.15
2018-07-04T11:30:23.416Z,982.08
2018-07-04T11:31:23.393Z,982.11
2018-07-04T11:32:23.379Z,982.13
2018-07-04T11:33:23.366Z,982.12
2018-07-04T11:34:23.348Z,982.13
2018-07-04T11:35:23.329Z,982.17
2018-07-04T11:36:23.328Z,982.13
2018-07-04T11:37:23.310Z,982.10
2018-07-04T11:38:23.285Z,982.13
2018-07-04T11:39:23.260Z,982.10
2018-07-04T11:40:23.258Z,982.11
2018-07-04T11:41:23.233Z,982.10
2018-07-04T11:42:23.210Z,982.12
2018-07-04T11:43:23.191Z,982.12
2018-07-04T11:44:23.193Z,982.08
2018-07-04T11:45:23.158Z,982.10
2018-07-04T11:46:23.228Z,982.08
2018-07-04T11:47:23.123Z,982.07
2018-07-04T11:48:23.111Z,982.09
2018-07-04T11:49:23.102Z,982.14
2018-07-04T11:50:23.080Z,982.10
2018-07-04T11:51:23.050Z,982.10
2018-07-04T11:52:23.044Z,982.14
2018-07-04T11:53:23.016Z,982.15
2018-07-04T11:54:23.008Z,982.15
2018-07-04T11:55:22.973Z,982.10
2018-07-04T11:56:22.969Z,982.14
2018-07-04T11:57:22.957Z,982.14
2018-07-04T11:58:22.963Z,982.10
2018-07-04T11:59:22.956Z,982.15
2018-07-04T12:00:22.885Z,982.10
2018-07-04T12:01:22.880Z,982.10
2018-07-04T12:02:22.863Z,982.10
2018-07-04T12:03:22.869Z,982.13
2018-07-04T12:04:22.823Z,982.08
2018-07-04T12:05:22.831Z,982.07
2018-07-04T12:06:22.791Z,982.11
2018-07-04T12:07:22.779Z,982.05
2018-07-04T12:08:23.751Z,982.05
2018-07-04T12:09:22.732Z,982.03
2018-07-04T12:10:22.720Z,982.02
2018-07-04T12:11:22.697Z,982.02
2018-07-04T12:12:22.673Z,982.00
2018-07-04T12:13:22.669Z,981.98
2018-07-04T12:14:22.651Z,981.99
2018-07-04T12:15:22.630Z,981.92
2018-07-04T12:16:22.596Z,981.96
2018-07-04T12:17:22.585Z,981.94
2018-07-04T12:18:22.591Z,981.96
2018-07-04T12:19:22.555Z,982.01
2018-07-04T12:20:22.550Z,981.97
2018-07-04T12:21:22.499Z,981.99
2018-07-04T12:22:22.503Z,981.97
2018-07-04T12:23:22.472Z,981.96
2018-07-04T12:24:22.453Z,981.96
2018-07-04T12:25:22.424Z,981.93
2018-07-04T12:26:22.420Z,981.93
2018-07-04T12:27:22.413Z,981.96
2018-07-04T12:28:22.366Z,981.89